createdAt,value
2017-09-02T00:00:23.093Z,1013.82
2017-09-02T00:00:49.201Z,1013.8
2017-09-02T00:01:15.330Z,1013.8
2017-09-02T00:01:41.445Z,1013.81
2017-09-02T00:02:07.551Z,1013.81
2017-09-02T00:02:33.663Z,1013.81
2017-09-02T00:02:59.776Z,1013.82
2017-09-02T00:03:25.879Z,1013.83
2017-09-02T00:03:51.994Z,1013.86
2017-09-02T00:04:18.099Z,1013.85
2017-09-02T00:04:44.208Z,1013.8
2017-09-02T00:05:10.314Z,1013.86
2017-09-02T00:05:36.426Z,1013.83
2017-09-02T00:06:02.533Z,1013.85
2017-09-02T00:06:28.647Z,1013.86
2017-09-02T00:06:54.767Z,1013.85
2017-09-02T00:07:20.879Z,1013.88
2017-09-02T00:07:46.986Z,1013.84
2017-09-02T00:08:13.095Z,1013.85
2017-09-02T00:08:39.209Z,1013.84
2017-09-02T00:09:05.315Z,1013.81
2017-09-02T00:09:31.418Z,1013.82
2017-09-02T00:09:57.531Z,1013.85
2017-09-02T00:10:23.644Z,1013.81
2017-09-02T00:10:49.747Z,1013.81
2017-09-02T00:11:15.861Z,1013.82
2017-09-02T00:11:41.964Z,1013.78
2017-09-02T00:12:08.092Z,1013.82
2017-09-02T00:12:34.203Z,1013.83
2017-09-02T00:13:00.308Z,1013.82
2017-09-02T00:13:26.420Z,1013.8
2017-09-02T00:13:52.532Z,1013.82
2017-09-02T00:14:18.635Z,1013.82
2017-09-02T00:14:44.750Z,1013.79
2017-09-02T00:15:10.856Z,1013.81
2017-09-02T00:15:36.968Z,1013.79
2017-09-02T00:16:03.095Z,1013.76
2017-09-02T00:16:29.210Z,1013.78
2017-09-02T00:16:55.312Z,1013.79
2017-09-02T00:17:21.419Z,1013.78
2017-09-02T00:17:47.527Z,1013.79
2017-09-02T00:18:13.638Z,1013.76
2017-09-02T00:18:39.737Z,1013.76
2017-09-02T00:19:05.851Z,1013.75
2017-09-02T00:19:31.960Z,1013.75
2017-09-02T00:19:58.069Z,1013.75
2017-09-02T00:20:24.180Z,1013.72
2017-09-02T00:20:50.281Z,1013.75
2017-09-02T00:21:16.394Z,1013.78
2017-09-02T00:21:42.508Z,1013.76
2017-09-02T00:22:08.617Z,1013.83
2017-09-02T00:22:34.720Z,1013.82
2017-09-02T00:23:00.825Z,1013.82
2017-09-02T00:23:26.935Z,1013.79
2017-09-02T00:23:53.038Z,1013.8
2017-09-02T00:24:19.145Z,1013.85
2017-09-02T00:24:45.258Z,1013.8
2017-09-02T00:25:11.368Z,1013.8
2017-09-02T00:25:37.473Z,1013.82
2017-09-02T00:26:03.582Z,1013.76
2017-09-02T00:26:29.693Z,1013.81
2017-09-02T00:26:55.799Z,1013.8
2017-09-02T00:27:21.912Z,1013.83
2017-09-02T00:27:48.025Z,1013.78
2017-09-02T00:28:14.129Z,1013.83
2017-09-02T00:28:40.239Z,1013.81
2017-09-02T00:29:06.348Z,1013.84
2017-09-02T00:29:32.458Z,1013.82
2017-09-02T00:29:58.564Z,1013.79
2017-09-02T00:30:24.674Z,1013.81
2017-09-02T00:30:50.780Z,1013.81
2017-09-02T00:31:16.887Z,1013.8
2017-09-02T00:31:43.001Z,1013.83
2017-09-02T00:32:09.105Z,1013.8
2017-09-02T00:32:35.220Z,1013.85
2017-09-02T00:33:01.325Z,1013.81
2017-09-02T00:33:27.438Z,1013.87
2017-09-02T00:33:53.549Z,1013.87
2017-09-02T00:34:19.652Z,1013.84
2017-09-02T00:34:45.764Z,1013.82
2017-09-02T00:35:11.887Z,1013.85
2017-09-02T00:35:38.008Z,1013.84
2017-09-02T00:36:04.119Z,1013.85
2017-09-02T00:36:30.231Z,1013.84
2017-09-02T00:36:56.340Z,1013.85
2017-09-02T00:37:22.449Z,1013.85
2017-09-02T00:37:48.552Z,1013.86
2017-09-02T00:38:14.684Z,1013.84
2017-09-02T00:38:40.789Z,1013.89
2017-09-02T00:39:06.902Z,1013.87
2017-09-02T00:39:33.004Z,1013.87
2017-09-02T00:39:59.111Z,1013.9
2017-09-02T00:40:25.241Z,1013.84
2017-09-02T00:40:51.379Z,1013.86
2017-09-02T00:41:17.462Z,1013.9
2017-09-02T00:41:43.570Z,1013.85
2017-09-02T00:42:09.684Z,1013.9
2017-09-02T00:42:35.804Z,1013.9
2017-09-02T00:43:01.925Z,1013.88
2017-09-02T00:43:28.032Z,1013.89
2017-09-02T00:43:54.150Z,1013.91
2017-09-02T00:44:20.251Z,1013.84
2017-09-02T00:44:46.365Z,1013.86
2017-09-02T00:45:12.468Z,1013.88
2017-09-02T00:45:38.581Z,1013.89
2017-09-02T00:46:04.685Z,1013.86
2017-09-02T00:46:30.802Z,1013.85
2017-09-02T00:46:56.912Z,1013.87
2017-09-02T00:47:23.020Z,1013.9
2017-09-02T00:47:49.124Z,1013.84
2017-09-02T00:48:15.231Z,1013.84
2017-09-02T00:48:41.344Z,1013.85
2017-09-02T00:49:07.446Z,1013.84
2017-09-02T00:49:33.556Z,1013.86
2017-09-02T00:49:59.668Z,1013.84
2017-09-02T00:50:25.778Z,1013.84
2017-09-02T00:50:51.884Z,1013.85
2017-09-02T00:51:17.990Z,1013.82
2017-09-02T00:51:44.103Z,1013.82
2017-09-02T00:52:10.207Z,1013.81
2017-09-02T00:52:36.320Z,1013.82
2017-09-02T00:53:02.424Z,1013.82
2017-09-02T00:53:28.534Z,1013.8
2017-09-02T00:53:54.647Z,1013.81
2017-09-02T00:54:20.751Z,1013.81
2017-09-02T00:54:46.858Z,1013.8
2017-09-02T00:55:12.971Z,1013.78
2017-09-02T00:55:39.073Z,1013.81
2017-09-02T00:56:05.206Z,1013.79
2017-09-02T00:56:31.338Z,1013.79
2017-09-02T00:56:57.446Z,1013.78
2017-09-02T00:57:23.550Z,1013.78
2017-09-02T00:57:49.663Z,1013.78
2017-09-02T00:58:15.773Z,1013.8
2017-09-02T00:58:41.878Z,1013.8
2017-09-02T00:59:07.991Z,1013.79
2017-09-02T00:59:34.093Z,1013.79
2017-09-02T01:00:00.219Z,1013.73
2017-09-02T01:00:26.329Z,1013.76
2017-09-02T01:00:52.436Z,1013.77
2017-09-02T01:01:18.549Z,1013.74
2017-09-02T01:01:44.653Z,1013.76
2017-09-02T01:02:10.769Z,1013.76
2017-09-02T01:02:36.873Z,1013.73
2017-09-02T01:03:02.983Z,1013.74
2017-09-02T01:03:29.095Z,1013.77
2017-09-02T01:03:55.203Z,1013.77
2017-09-02T01:04:21.306Z,1013.74
2017-09-02T01:04:47.419Z,1013.77
2017-09-02T01:05:13.523Z,1013.78
2017-09-02T01:05:39.635Z,1013.75
2017-09-02T01:06:05.745Z,1013.75
2017-09-02T01:06:31.869Z,1013.81
2017-09-02T01:06:57.979Z,1013.77
2017-09-02T01:07:24.084Z,1013.77
2017-09-02T01:07:50.191Z,1013.8
2017-09-02T01:08:16.305Z,1013.78
2017-09-02T01:08:42.414Z,1013.81
2017-09-02T01:09:08.520Z,1013.78
2017-09-02T01:09:34.638Z,1013.79
2017-09-02T01:10:00.739Z,1013.78
2017-09-02T01:10:26.851Z,1013.75
2017-09-02T01:10:52.956Z,1013.75
2017-09-02T01:11:19.062Z,1013.74
2017-09-02T01:11:45.170Z,1013.75
2017-09-02T01:12:11.286Z,1013.74
2017-09-02T01:12:37.393Z,1013.78
2017-09-02T01:13:03.499Z,1013.72
2017-09-02T01:13:29.608Z,1013.75
2017-09-02T01:13:55.728Z,1013.76
2017-09-02T01:14:21.843Z,1013.76
2017-09-02T01:14:47.952Z,1013.73
2017-09-02T01:15:14.062Z,1013.72
2017-09-02T01:15:40.174Z,1013.73
2017-09-02T01:16:06.275Z,1013.73
2017-09-02T01:16:32.383Z,1013.77
2017-09-02T01:16:58.496Z,1013.74
2017-09-02T01:17:24.605Z,1013.75
2017-09-02T01:17:50.723Z,1013.72
2017-09-02T01:18:16.832Z,1013.76
2017-09-02T01:18:42.934Z,1013.76
2017-09-02T01:19:09.042Z,1013.77
2017-09-02T01:19:35.156Z,1013.75
2017-09-02T01:20:01.265Z,1013.76
2017-09-02T01:20:27.374Z,1013.74
2017-09-02T01:20:53.483Z,1013.74
2017-09-02T01:21:19.592Z,1013.78
2017-09-02T01:21:45.703Z,1013.74
2017-09-02T01:22:11.813Z,1013.74
2017-09-02T01:22:37.927Z,1013.77
2017-09-02T01:23:04.028Z,1013.77
2017-09-02T01:23:30.139Z,1013.75
2017-09-02T01:23:56.246Z,1013.74
2017-09-02T01:24:22.373Z,1013.77
2017-09-02T01:24:48.481Z,1013.75
2017-09-02T01:25:14.585Z,1013.75
2017-09-02T01:25:40.700Z,1013.79
2017-09-02T01:26:06.826Z,1013.75
2017-09-02T01:26:32.931Z,1013.76
2017-09-02T01:26:59.038Z,1013.74
2017-09-02T01:27:25.151Z,1013.78
2017-09-02T01:27:51.264Z,1013.76
2017-09-02T01:28:17.366Z,1013.76
2017-09-02T01:28:43.482Z,1013.76
2017-09-02T01:29:09.586Z,1013.76
2017-09-02T01:29:35.694Z,1013.76
2017-09-02T01:30:01.821Z,1013.75
2017-09-02T01:30:27.925Z,1013.76
2017-09-02T01:30:54.035Z,1013.77
2017-09-02T01:31:20.148Z,1013.76
2017-09-02T01:31:46.255Z,1013.75
2017-09-02T01:32:12.367Z,1013.76
2017-09-02T01:32:38.469Z,1013.76
2017-09-02T01:33:04.578Z,1013.78
2017-09-02T01:33:30.690Z,1013.79
2017-09-02T01:33:56.798Z,1013.78
2017-09-02T01:34:22.906Z,1013.8
2017-09-02T01:34:49.017Z,1013.8
2017-09-02T01:35:15.124Z,1013.79
2017-09-02T01:35:41.235Z,1013.79
2017-09-02T01:36:07.344Z,1013.79
2017-09-02T01:36:33.456Z,1013.79
2017-09-02T01:36:59.555Z,1013.82
2017-09-02T01:37:25.667Z,1013.79
2017-09-02T01:37:51.769Z,1013.82
2017-09-02T01:38:17.896Z,1013.8
2017-09-02T01:38:44.006Z,1013.84
2017-09-02T01:39:10.113Z,1013.84
2017-09-02T01:39:36.225Z,1013.82
2017-09-02T01:40:02.336Z,1013.83
2017-09-02T01:40:28.446Z,1013.81
2017-09-02T01:40:54.568Z,1013.84
2017-09-02T01:41:20.694Z,1013.83
2017-09-02T01:41:46.804Z,1013.84
2017-09-02T01:42:12.910Z,1013.82
2017-09-02T01:42:39.017Z,1013.84
2017-09-02T01:43:05.127Z,1013.83
2017-09-02T01:43:31.234Z,1013.8
2017-09-02T01:43:57.349Z,1013.81
2017-09-02T01:44:23.452Z,1013.81
2017-09-02T01:44:49.561Z,1013.81
2017-09-02T01:45:15.669Z,1013.8
2017-09-02T01:45:41.779Z,1013.8
2017-09-02T01:46:07.884Z,1013.81
2017-09-02T01:46:33.999Z,1013.77
2017-09-02T01:47:00.123Z,1013.79
2017-09-02T01:47:26.231Z,1013.78
2017-09-02T01:47:52.341Z,1013.79
2017-09-02T01:48:18.456Z,1013.8
2017-09-02T01:48:44.572Z,1013.78
2017-09-02T01:49:10.683Z,1013.8
2017-09-02T01:49:36.798Z,1013.78
2017-09-02T01:50:02.924Z,1013.79
2017-09-02T01:50:29.071Z,1013.79
2017-09-02T01:50:55.184Z,1013.78
2017-09-02T01:51:21.283Z,1013.75
2017-09-02T01:51:47.399Z,1013.76
2017-09-02T01:52:13.508Z,1013.78
2017-09-02T01:52:39.616Z,1013.78
2017-09-02T01:53:05.721Z,1013.78
2017-09-02T01:53:31.852Z,1013.77
2017-09-02T01:53:58.011Z,1013.8
2017-09-02T01:54:24.124Z,1013.78
2017-09-02T01:54:50.237Z,1013.77
2017-09-02T01:55:16.342Z,1013.77
2017-09-02T01:55:42.453Z,1013.79
2017-09-02T01:56:08.563Z,1013.74
2017-09-02T01:56:34.666Z,1013.76
2017-09-02T01:57:00.773Z,1013.73
2017-09-02T01:57:26.887Z,1013.75
2017-09-02T01:57:53.000Z,1013.74
2017-09-02T01:58:19.150Z,1013.76
2017-09-02T01:58:45.259Z,1013.76
2017-09-02T01:59:11.367Z,1013.75
2017-09-02T01:59:37.479Z,1013.75
2017-09-02T02:00:03.581Z,1013.74
2017-09-02T02:00:29.689Z,1013.75
2017-09-02T02:00:55.796Z,1013.75
2017-09-02T02:01:21.903Z,1013.71
2017-09-02T02:01:48.008Z,1013.74
2017-09-02T02:02:14.285Z,1013.72
2017-09-02T02:02:40.509Z,1013.77
2017-09-02T02:03:07.046Z,1013.76
2017-09-02T02:03:33.189Z,1013.76
2017-09-02T02:03:59.296Z,1013.74
2017-09-02T02:04:25.399Z,1013.75
2017-09-02T02:04:51.512Z,1013.74
2017-09-02T02:05:17.629Z,1013.73
2017-09-02T02:05:43.739Z,1013.76
2017-09-02T02:06:09.852Z,1013.76
2017-09-02T02:06:35.977Z,1013.76
2017-09-02T02:07:02.082Z,1013.75
2017-09-02T02:07:28.197Z,1013.79
2017-09-02T02:07:54.380Z,1013.78
2017-09-02T02:08:20.749Z,1013.74
2017-09-02T02:08:47.121Z,1013.77
2017-09-02T02:09:13.606Z,1013.75
2017-09-02T02:09:39.835Z,1013.76
2017-09-02T02:10:05.955Z,1013.75
2017-09-02T02:10:32.153Z,1013.77
2017-09-02T02:10:58.267Z,1013.73
2017-09-02T02:11:24.377Z,1013.78
2017-09-02T02:11:50.483Z,1013.71
2017-09-02T02:12:16.595Z,1013.74
2017-09-02T02:12:42.702Z,1013.75
2017-09-02T02:13:08.813Z,1013.74
2017-09-02T02:13:34.915Z,1013.76
2017-09-02T02:14:01.046Z,1013.76
2017-09-02T02:14:27.153Z,1013.76
2017-09-02T02:14:53.260Z,1013.75
2017-09-02T02:15:19.374Z,1013.75
2017-09-02T02:15:45.479Z,1013.73
2017-09-02T02:16:11.594Z,1013.71
2017-09-02T02:16:37.715Z,1013.74
2017-09-02T02:17:03.823Z,1013.75
2017-09-02T02:17:29.933Z,1013.73
2017-09-02T02:17:56.046Z,1013.75
2017-09-02T02:18:22.153Z,1013.71
2017-09-02T02:18:48.265Z,1013.71
2017-09-02T02:19:14.382Z,1013.77
2017-09-02T02:19:40.490Z,1013.72
2017-09-02T02:20:06.602Z,1013.73
2017-09-02T02:20:32.707Z,1013.72
2017-09-02T02:20:58.816Z,1013.73
2017-09-02T02:21:24.922Z,1013.73
2017-09-02T02:21:51.035Z,1013.73
2017-09-02T02:22:17.137Z,1013.7
2017-09-02T02:22:43.252Z,1013.67
2017-09-02T02:23:09.355Z,1013.73
2017-09-02T02:23:35.472Z,1013.71
2017-09-02T02:24:01.582Z,1013.72
2017-09-02T02:24:27.693Z,1013.72
2017-09-02T02:24:53.792Z,1013.74
2017-09-02T02:25:19.903Z,1013.72
2017-09-02T02:25:46.006Z,1013.74
2017-09-02T02:26:12.121Z,1013.71
2017-09-02T02:26:38.227Z,1013.7
2017-09-02T02:27:04.333Z,1013.74
2017-09-02T02:27:30.443Z,1013.73
2017-09-02T02:27:56.568Z,1013.74
2017-09-02T02:28:22.678Z,1013.69
2017-09-02T02:28:48.786Z,1013.72
2017-09-02T02:29:14.896Z,1013.74
2017-09-02T02:29:41.012Z,1013.7
2017-09-02T02:30:07.117Z,1013.74
2017-09-02T02:30:33.226Z,1013.72
2017-09-02T02:30:59.339Z,1013.74
2017-09-02T02:31:25.446Z,1013.72
2017-09-02T02:31:51.556Z,1013.71
2017-09-02T02:32:17.682Z,1013.71
2017-09-02T02:32:43.798Z,1013.69
2017-09-02T02:33:09.903Z,1013.69
2017-09-02T02:33:36.018Z,1013.73
2017-09-02T02:34:02.131Z,1013.72
2017-09-02T02:34:28.254Z,1013.72
2017-09-02T02:34:54.361Z,1013.71
2017-09-02T02:35:20.472Z,1013.71
2017-09-02T02:35:46.578Z,1013.69
2017-09-02T02:36:12.691Z,1013.7
2017-09-02T02:36:38.796Z,1013.68
2017-09-02T02:37:04.910Z,1013.68
2017-09-02T02:37:31.023Z,1013.72
2017-09-02T02:37:57.144Z,1013.73
2017-09-02T02:38:23.255Z,1013.66
2017-09-02T02:38:49.360Z,1013.69
2017-09-02T02:39:15.469Z,1013.66
2017-09-02T02:39:41.574Z,1013.64
2017-09-02T02:40:07.689Z,1013.67
2017-09-02T02:40:33.795Z,1013.68
2017-09-02T02:40:59.899Z,1013.66
2017-09-02T02:41:26.008Z,1013.64
2017-09-02T02:41:52.136Z,1013.68
2017-09-02T02:42:18.255Z,1013.68
2017-09-02T02:42:44.345Z,1013.63
2017-09-02T02:43:10.468Z,1013.66
2017-09-02T02:43:36.578Z,1013.64
2017-09-02T02:44:02.683Z,1013.66
2017-09-02T02:44:28.793Z,1013.65
2017-09-02T02:44:54.904Z,1013.64
2017-09-02T02:45:21.007Z,1013.63
2017-09-02T02:45:47.120Z,1013.62
2017-09-02T02:46:13.228Z,1013.67
2017-09-02T02:46:39.361Z,1013.64
2017-09-02T02:47:05.435Z,1013.67
2017-09-02T02:47:31.543Z,1013.67
2017-09-02T02:47:57.656Z,1013.68
2017-09-02T02:48:23.763Z,1013.66
2017-09-02T02:48:49.876Z,1013.69
2017-09-02T02:49:15.988Z,1013.66
2017-09-02T02:49:42.098Z,1013.65
2017-09-02T02:50:08.202Z,1013.67
2017-09-02T02:50:34.309Z,1013.67
2017-09-02T02:51:00.424Z,1013.65
2017-09-02T02:51:26.569Z,1013.65
2017-09-02T02:51:52.680Z,1013.67
2017-09-02T02:52:18.788Z,1013.6
2017-09-02T02:52:44.913Z,1013.65
2017-09-02T02:53:11.024Z,1013.63
2017-09-02T02:53:37.126Z,1013.63
2017-09-02T02:54:03.237Z,1013.61
2017-09-02T02:54:29.351Z,1013.65
2017-09-02T02:54:55.463Z,1013.65
2017-09-02T02:55:21.587Z,1013.61
2017-09-02T02:55:47.693Z,1013.62
2017-09-02T02:56:13.807Z,1013.62
2017-09-02T02:56:39.911Z,1013.63
2017-09-02T02:57:06.022Z,1013.64
2017-09-02T02:57:32.132Z,1013.62
2017-09-02T02:57:58.258Z,1013.61
2017-09-02T02:58:24.372Z,1013.62
2017-09-02T02:58:50.473Z,1013.61
2017-09-02T02:59:16.589Z,1013.61
2017-09-02T02:59:42.697Z,1013.62
2017-09-02T03:00:08.801Z,1013.59
2017-09-02T03:00:34.914Z,1013.58
2017-09-02T03:01:01.019Z,1013.6
2017-09-02T03:01:27.133Z,1013.59
2017-09-02T03:01:53.244Z,1013.59
2017-09-02T03:02:19.353Z,1013.63
2017-09-02T03:02:45.461Z,1013.58
2017-09-02T03:03:11.574Z,1013.59
2017-09-02T03:03:37.703Z,1013.61
2017-09-02T03:04:03.794Z,1013.57
2017-09-02T03:04:29.900Z,1013.53
2017-09-02T03:04:56.012Z,1013.55
2017-09-02T03:05:22.124Z,1013.57
2017-09-02T03:05:48.231Z,1013.57
2017-09-02T03:06:14.340Z,1013.52
2017-09-02T03:06:40.444Z,1013.56
2017-09-02T03:07:06.561Z,1013.53
2017-09-02T03:07:32.677Z,1013.52
2017-09-02T03:07:58.790Z,1013.53
2017-09-02T03:08:24.924Z,1013.51
2017-09-02T03:08:51.035Z,1013.52
2017-09-02T03:09:17.141Z,1013.54
2017-09-02T03:09:43.247Z,1013.54
2017-09-02T03:10:09.359Z,1013.55
2017-09-02T03:10:35.470Z,1013.55
2017-09-02T03:11:01.576Z,1013.53
2017-09-02T03:11:27.689Z,1013.56
2017-09-02T03:11:53.792Z,1013.53
2017-09-02T03:12:19.895Z,1013.55
2017-09-02T03:12:46.004Z,1013.56
2017-09-02T03:13:12.110Z,1013.55
2017-09-02T03:13:38.221Z,1013.56
2017-09-02T03:14:04.336Z,1013.57
2017-09-02T03:14:30.442Z,1013.57
2017-09-02T03:14:56.583Z,1013.63
2017-09-02T03:15:22.695Z,1013.57
2017-09-02T03:15:48.799Z,1013.59
2017-09-02T03:16:14.910Z,1013.59
2017-09-02T03:16:41.017Z,1013.6
2017-09-02T03:17:07.128Z,1013.56
2017-09-02T03:17:33.235Z,1013.58
2017-09-02T03:17:59.348Z,1013.54
2017-09-02T03:18:25.454Z,1013.55
2017-09-02T03:18:51.570Z,1013.58
2017-09-02T03:19:17.681Z,1013.6
2017-09-02T03:19:43.787Z,1013.58
2017-09-02T03:20:09.894Z,1013.58
2017-09-02T03:20:36.007Z,1013.56
2017-09-02T03:21:02.112Z,1013.56
2017-09-02T03:21:28.225Z,1013.58
2017-09-02T03:21:54.338Z,1013.56
2017-09-02T03:22:20.443Z,1013.55
2017-09-02T03:22:46.557Z,1013.55
2017-09-02T03:23:12.662Z,1013.57
2017-09-02T03:23:38.769Z,1013.55
2017-09-02T03:24:04.885Z,1013.54
2017-09-02T03:24:31.006Z,1013.55
2017-09-02T03:24:57.138Z,1013.55
2017-09-02T03:25:23.248Z,1013.57
2017-09-02T03:25:49.356Z,1013.54
2017-09-02T03:26:15.467Z,1013.55
2017-09-02T03:26:41.568Z,1013.54
2017-09-02T03:27:07.673Z,1013.56
2017-09-02T03:27:33.781Z,1013.52
2017-09-02T03:27:59.890Z,1013.54
2017-09-02T03:28:26.010Z,1013.55
2017-09-02T03:28:52.112Z,1013.53
2017-09-02T03:29:18.225Z,1013.49
2017-09-02T03:29:44.331Z,1013.49
2017-09-02T03:30:10.438Z,1013.53
2017-09-02T03:30:36.546Z,1013.53
2017-09-02T03:31:02.653Z,1013.53
2017-09-02T03:31:28.768Z,1013.51
2017-09-02T03:31:54.873Z,1013.53
2017-09-02T03:32:20.976Z,1013.53
2017-09-02T03:32:47.087Z,1013.55
2017-09-02T03:33:13.193Z,1013.57
2017-09-02T03:33:39.308Z,1013.53
2017-09-02T03:34:05.419Z,1013.54
2017-09-02T03:34:31.533Z,1013.55
2017-09-02T03:34:57.642Z,1013.55
2017-09-02T03:35:23.744Z,1013.55
2017-09-02T03:35:49.859Z,1013.54
2017-09-02T03:36:15.964Z,1013.53
2017-09-02T03:36:42.076Z,1013.56
2017-09-02T03:37:08.182Z,1013.56
2017-09-02T03:37:34.289Z,1013.56
2017-09-02T03:38:00.404Z,1013.53
2017-09-02T03:38:26.514Z,1013.56
2017-09-02T03:38:52.621Z,1013.5
2017-09-02T03:39:18.726Z,1013.53
2017-09-02T03:39:44.841Z,1013.5
2017-09-02T03:40:10.945Z,1013.52
2017-09-02T03:40:37.058Z,1013.56
2017-09-02T03:41:03.180Z,1013.53
2017-09-02T03:41:29.295Z,1013.56
2017-09-02T03:41:55.403Z,1013.54
2017-09-02T03:42:21.512Z,1013.57
2017-09-02T03:42:47.642Z,1013.56
2017-09-02T03:43:13.763Z,1013.5
2017-09-02T03:43:39.875Z,1013.53
2017-09-02T03:44:05.982Z,1013.53
2017-09-02T03:44:32.094Z,1013.53
2017-09-02T03:44:58.203Z,1013.52
2017-09-02T03:45:24.305Z,1013.53
2017-09-02T03:45:50.418Z,1013.5
2017-09-02T03:46:16.523Z,1013.54
2017-09-02T03:46:42.637Z,1013.54
2017-09-02T03:47:08.740Z,1013.5
2017-09-02T03:47:34.856Z,1013.52
2017-09-02T03:48:00.967Z,1013.51
2017-09-02T03:48:27.096Z,1013.54
2017-09-02T03:48:53.201Z,1013.54
2017-09-02T03:49:19.312Z,1013.5
2017-09-02T03:49:45.421Z,1013.56
2017-09-02T03:50:11.533Z,1013.5
2017-09-02T03:50:37.639Z,1013.52
2017-09-02T03:51:03.748Z,1013.48
2017-09-02T03:51:29.878Z,1013.48
2017-09-02T03:51:55.982Z,1013.52
2017-09-02T03:52:22.089Z,1013.51
2017-09-02T03:52:48.193Z,1013.52
2017-09-02T03:53:14.312Z,1013.5
2017-09-02T03:53:40.422Z,1013.53
2017-09-02T03:54:06.525Z,1013.52
2017-09-02T03:54:32.630Z,1013.51
2017-09-02T03:54:58.746Z,1013.49
2017-09-02T03:55:24.853Z,1013.5
2017-09-02T03:55:50.966Z,1013.49
2017-09-02T03:56:17.076Z,1013.49
2017-09-02T03:56:43.179Z,1013.46
2017-09-02T03:57:09.294Z,1013.46
2017-09-02T03:57:35.396Z,1013.45
2017-09-02T03:58:01.501Z,1013.49
2017-09-02T03:58:27.607Z,1013.48
2017-09-02T03:58:53.714Z,1013.49
2017-09-02T03:59:19.817Z,1013.48
2017-09-02T03:59:45.934Z,1013.47
2017-09-02T04:00:12.041Z,1013.48
2017-09-02T04:00:38.155Z,1013.45
2017-09-02T04:01:04.262Z,1013.46
2017-09-02T04:01:30.368Z,1013.47
2017-09-02T04:01:56.475Z,1013.49
2017-09-02T04:02:22.591Z,1013.48
2017-09-02T04:02:48.699Z,1013.5
2017-09-02T04:03:14.805Z,1013.48
2017-09-02T04:03:40.929Z,1013.45
2017-09-02T04:04:07.032Z,1013.46
2017-09-02T04:04:33.146Z,1013.44
2017-09-02T04:04:59.252Z,1013.49
2017-09-02T04:05:25.364Z,1013.5
2017-09-02T04:05:51.475Z,1013.46
2017-09-02T04:06:17.599Z,1013.45
2017-09-02T04:06:43.735Z,1013.5
2017-09-02T04:07:09.847Z,1013.47
2017-09-02T04:07:35.948Z,1013.45
2017-09-02T04:08:02.058Z,1013.47
2017-09-02T04:08:28.164Z,1013.51
2017-09-02T04:08:54.272Z,1013.45
2017-09-02T04:09:20.400Z,1013.47
2017-09-02T04:09:46.511Z,1013.47
2017-09-02T04:10:12.624Z,1013.44
2017-09-02T04:10:38.729Z,1013.5
2017-09-02T04:11:04.843Z,1013.49
2017-09-02T04:11:30.949Z,1013.49
2017-09-02T04:11:57.079Z,1013.48
2017-09-02T04:12:23.187Z,1013.45
2017-09-02T04:12:49.297Z,1013.45
2017-09-02T04:13:15.404Z,1013.48
2017-09-02T04:13:41.517Z,1013.47
2017-09-02T04:14:07.625Z,1013.49
2017-09-02T04:14:33.730Z,1013.49
2017-09-02T04:14:59.842Z,1013.5
2017-09-02T04:15:25.948Z,1013.5
2017-09-02T04:15:52.058Z,1013.49
2017-09-02T04:16:18.169Z,1013.49
2017-09-02T04:16:44.272Z,1013.47
2017-09-02T04:17:10.388Z,1013.49
2017-09-02T04:17:36.510Z,1013.47
2017-09-02T04:18:02.622Z,1013.51
2017-09-02T04:18:28.731Z,1013.49
2017-09-02T04:18:54.839Z,1013.46
2017-09-02T04:19:20.952Z,1013.49
2017-09-02T04:19:47.052Z,1013.47
2017-09-02T04:20:13.159Z,1013.47
2017-09-02T04:20:39.275Z,1013.48
2017-09-02T04:21:05.382Z,1013.52
2017-09-02T04:21:31.486Z,1013.45
2017-09-02T04:21:57.592Z,1013.5
2017-09-02T04:22:23.705Z,1013.5
2017-09-02T04:22:49.811Z,1013.5
2017-09-02T04:23:15.918Z,1013.49
2017-09-02T04:23:42.028Z,1013.53
2017-09-02T04:24:08.131Z,1013.53
2017-09-02T04:24:34.261Z,1013.52
2017-09-02T04:25:00.392Z,1013.53
2017-09-02T04:25:26.494Z,1013.51
2017-09-02T04:25:52.608Z,1013.51
2017-09-02T04:26:18.718Z,1013.52
2017-09-02T04:26:44.824Z,1013.52
2017-09-02T04:27:10.935Z,1013.53
2017-09-02T04:27:37.039Z,1013.51
2017-09-02T04:28:03.153Z,1013.51
2017-09-02T04:28:29.258Z,1013.54
2017-09-02T04:28:55.363Z,1013.56
2017-09-02T04:29:21.487Z,1013.56
2017-09-02T04:29:47.592Z,1013.55
2017-09-02T04:30:13.708Z,1013.55
2017-09-02T04:30:39.821Z,1013.56
2017-09-02T04:31:05.925Z,1013.56
2017-09-02T04:31:32.033Z,1013.57
2017-09-02T04:31:58.143Z,1013.58
2017-09-02T04:32:24.259Z,1013.57
2017-09-02T04:32:50.359Z,1013.57
2017-09-02T04:33:16.469Z,1013.58
2017-09-02T04:33:42.573Z,1013.59
2017-09-02T04:34:08.689Z,1013.59
2017-09-02T04:34:34.792Z,1013.59
2017-09-02T04:35:00.907Z,1013.61
2017-09-02T04:35:27.012Z,1013.62
2017-09-02T04:35:53.119Z,1013.6
2017-09-02T04:36:19.231Z,1013.59
2017-09-02T04:36:45.336Z,1013.61
2017-09-02T04:37:11.449Z,1013.58
2017-09-02T04:37:37.552Z,1013.6
2017-09-02T04:38:03.668Z,1013.61
2017-09-02T04:38:29.778Z,1013.57
2017-09-02T04:38:55.882Z,1013.6
2017-09-02T04:39:21.996Z,1013.6
2017-09-02T04:39:48.101Z,1013.6
2017-09-02T04:40:14.230Z,1013.61
2017-09-02T04:40:40.340Z,1013.61
2017-09-02T04:41:06.442Z,1013.61
2017-09-02T04:41:32.558Z,1013.62
2017-09-02T04:41:58.668Z,1013.61
2017-09-02T04:42:24.774Z,1013.6
2017-09-02T04:42:50.900Z,1013.63
2017-09-02T04:43:17.006Z,1013.63
2017-09-02T04:43:43.111Z,1013.63
2017-09-02T04:44:09.224Z,1013.66
2017-09-02T04:44:35.333Z,1013.65
2017-09-02T04:45:01.459Z,1013.67
2017-09-02T04:45:27.585Z,1013.67
2017-09-02T04:45:53.700Z,1013.67
2017-09-02T04:46:19.807Z,1013.66
2017-09-02T04:46:45.915Z,1013.66
2017-09-02T04:47:12.025Z,1013.69
2017-09-02T04:47:38.152Z,1013.66
2017-09-02T04:48:04.277Z,1013.72
2017-09-02T04:48:30.379Z,1013.7
2017-09-02T04:48:56.482Z,1013.68
2017-09-02T04:49:22.588Z,1013.67
2017-09-02T04:49:48.697Z,1013.68
2017-09-02T04:50:14.812Z,1013.69
2017-09-02T04:50:40.922Z,1013.69
2017-09-02T04:51:07.028Z,1013.67
2017-09-02T04:51:33.143Z,1013.71
2017-09-02T04:51:59.245Z,1013.66
2017-09-02T04:52:25.352Z,1013.69
2017-09-02T04:52:51.464Z,1013.67
2017-09-02T04:53:17.569Z,1013.67
2017-09-02T04:53:43.682Z,1013.69
2017-09-02T04:54:09.787Z,1013.68
2017-09-02T04:54:35.914Z,1013.69
2017-09-02T04:55:02.021Z,1013.66
2017-09-02T04:55:28.134Z,1013.67
2017-09-02T04:55:54.237Z,1013.66
2017-09-02T04:56:20.351Z,1013.67
2017-09-02T04:56:46.455Z,1013.64
2017-09-02T04:57:12.585Z,1013.69
2017-09-02T04:57:38.692Z,1013.69
2017-09-02T04:58:04.803Z,1013.66
2017-09-02T04:58:30.910Z,1013.68
2017-09-02T04:58:57.026Z,1013.65
2017-09-02T04:59:23.134Z,1013.7
2017-09-02T04:59:49.238Z,1013.67
2017-09-02T05:00:15.357Z,1013.69
2017-09-02T05:00:41.457Z,1013.69
2017-09-02T05:01:07.559Z,1013.69
2017-09-02T05:01:33.675Z,1013.73
2017-09-02T05:01:59.781Z,1013.68
2017-09-02T05:02:25.886Z,1013.7
2017-09-02T05:02:51.994Z,1013.68
2017-09-02T05:03:18.107Z,1013.71
2017-09-02T05:03:44.211Z,1013.71
2017-09-02T05:04:10.325Z,1013.71
2017-09-02T05:04:36.436Z,1013.72
2017-09-02T05:05:02.542Z,1013.75
2017-09-02T05:05:28.654Z,1013.75
2017-09-02T05:05:54.764Z,1013.74
2017-09-02T05:06:20.867Z,1013.72
2017-09-02T05:06:46.981Z,1013.75
2017-09-02T05:07:13.081Z,1013.79
2017-09-02T05:07:39.194Z,1013.75
2017-09-02T05:08:05.306Z,1013.74
2017-09-02T05:08:31.408Z,1013.77
2017-09-02T05:08:57.512Z,1013.79
2017-09-02T05:09:23.624Z,1013.76
2017-09-02T05:09:49.738Z,1013.76
2017-09-02T05:10:15.847Z,1013.78
2017-09-02T05:10:41.956Z,1013.77
2017-09-02T05:11:08.067Z,1013.78
2017-09-02T05:11:34.172Z,1013.78
2017-09-02T05:12:00.279Z,1013.79
2017-09-02T05:12:26.386Z,1013.78
2017-09-02T05:12:52.494Z,1013.77
2017-09-02T05:13:18.602Z,1013.77
2017-09-02T05:13:44.716Z,1013.81
2017-09-02T05:14:10.817Z,1013.79
2017-09-02T05:14:36.925Z,1013.79
2017-09-02T05:15:03.052Z,1013.78
2017-09-02T05:15:29.183Z,1013.82
2017-09-02T05:15:55.296Z,1013.78
2017-09-02T05:16:21.399Z,1013.82
2017-09-02T05:16:47.505Z,1013.82